Monticello, AR

8:24 AM CST en Febrero 19, 2017 (GMT -0600)
Bowser | | Change Station

Alt 243 ft 33.58 °N, 91.85 °W | Updated 20 seconds ago

Scattered Clouds
Nubes dispersas
58.3 ° F
Sensación térmica 58.3 ° F
N
0.0
Viento Variable Viento desde Oeste
Gusts 0.0 mph

Hoy
Alta -- | Baja -- ° F
--% Posibilidad de precipitaciones
Ayer
Alta -- | Baja -- ° F
Precip. -- pul
Presión 30.06 pul
Visibilidad 10.0 Millas
Nubes Nubes dispersas 5500 ft
Nubes dispersas 6500 ft
Punto de rocío 57 ° F
Humedad 95%
Precipitaciones 0.00 pul
Espesor de la nieve No disponible.
6:46 AM 5:55 PM
Cuarto menguante, 43% visible
METAR KLLQ 191353Z AUTO 16007KT 10SM SCT055 SCT065 14/11 A3007 RMK AO2 SLP180 T01390111
Presión 30.06 pul
Visibilidad 10.0 Millas
Nubes Nubes dispersas 5500 ft
Nubes dispersas 6500 ft
Punto de rocío 57 ° F
Humedad 95%
Precipitaciones 0.00 pul
Espesor de la nieve No disponible.
6:46 AM 5:55 PM
Cuarto menguante, 43% visible
METAR KLLQ 191353Z AUTO 16007KT 10SM SCT055 SCT065 14/11 A3007 RMK AO2 SLP180 T01390111

Get Your Daily Forecast Email!

Thanks for signing up!

Be on the lookout for a verification email in your inbox.

You'll start receiving the daily forecast at 8 AM.

×

10-Day Weather Forecast

Almanac

Astronomía

Feb. 19, 2017 Salida Puesta
Hora real
Crepúsculo civil
Crepúsculo náutico
Crepúsculo astronómico
Luna
Horas de luz
Horas de luz
Tomorrow will be .
, % of the Moon is Illuminated

Extremos de hoy

Máximos del estado Bajos del estado

Community

WunderPhotos

Upload Photos

1,962,540 ¡fotos cargadas!

WunderBlog® & News

Nearby

Calidad del aire

  Calidad del aire Índice AQ Contaminante
Not available.

Grosos de nieve

Estación Profundido Altura

Actividad de terremotos

Ciudad Distance Mag. Tiempo y dato
Magnitud mínima muestra es 2,5.

Temperaturas de aguas costeras

Lugar Temperatura

Stations

Estaciones meteorológicas cercanas

Ubicación de la estación Temp. Vientos helados Punto de rocío Humedad Viento Precip. Alt Actualizado Tipo
                   

Watches & Warnings

There are currently no watches in effect.